createdAt,value
2018-01-11T00:00:24.381Z,0.00
2018-01-11T00:01:55.926Z,0.00
2018-01-11T00:03:27.746Z,0.00
2018-01-11T00:04:59.564Z,0.00
2018-01-11T00:06:31.382Z,0.00
2018-01-11T00:08:03.202Z,0.00
2018-01-11T00:09:35.046Z,0.00
2018-01-11T00:11:06.839Z,0.00
2018-01-11T00:12:38.757Z,0.00
2018-01-11T00:14:10.475Z,0.00
2018-01-11T00:15:42.293Z,0.00
2018-01-11T00:17:14.112Z,0.00
2018-01-11T00:18:45.931Z,0.00
2018-01-11T00:20:17.750Z,0.00
2018-01-11T00:21:49.569Z,0.00
2018-01-11T00:23:21.387Z,0.00
2018-01-11T00:24:53.205Z,0.00
2018-01-11T00:26:25.024Z,0.00
2018-01-11T00:27:56.843Z,0.00
2018-01-11T00:29:28.661Z,0.00
2018-01-11T00:31:00.480Z,0.00
2018-01-11T00:32:32.298Z,0.00
2018-01-11T00:34:04.117Z,0.00
2018-01-11T00:35:35.935Z,0.00
2018-01-11T00:37:07.754Z,0.00
2018-01-11T00:38:39.572Z,0.00
2018-01-11T00:40:11.391Z,0.00
2018-01-11T00:41:43.209Z,0.00
2018-01-11T00:43:15.128Z,0.00
2018-01-11T00:44:46.846Z,0.00
2018-01-11T00:46:18.672Z,0.00
2018-01-11T00:47:50.483Z,0.00
2018-01-11T00:49:22.302Z,0.00
2018-01-11T00:50:54.120Z,0.00
2018-01-11T00:52:25.941Z,0.00
2018-01-11T00:53:57.757Z,0.00
2018-01-11T00:55:29.576Z,0.00
2018-01-11T00:57:01.395Z,0.00
2018-01-11T00:58:33.213Z,0.00
2018-01-11T01:00:05.032Z,0.00
2018-01-11T01:01:36.859Z,0.00
2018-01-11T01:03:08.668Z,0.00
2018-01-11T01:04:40.486Z,0.00
2018-01-11T01:06:12.304Z,0.00
2018-01-11T01:07:44.123Z,0.00
2018-01-11T01:09:15.941Z,0.00
2018-01-11T01:10:47.760Z,0.00
2018-01-11T01:12:19.578Z,0.00
2018-01-11T01:13:51.397Z,0.00
2018-01-11T01:15:23.215Z,0.00
2018-01-11T01:16:55.034Z,0.00
2018-01-11T01:18:26.854Z,0.00
2018-01-11T01:19:58.671Z,0.00
2018-01-11T01:21:30.490Z,0.00
2018-01-11T01:23:02.310Z,0.00
2018-01-11T01:24:34.127Z,0.00
2018-01-11T01:26:05.947Z,0.00
2018-01-11T01:27:37.763Z,0.00
2018-01-11T01:29:09.582Z,0.00
2018-01-11T01:30:41.400Z,0.00
2018-01-11T01:32:13.218Z,0.00
2018-01-11T01:33:45.037Z,0.00
2018-01-11T01:35:16.856Z,0.00
2018-01-11T01:36:48.674Z,0.00
2018-01-11T01:38:20.493Z,0.00
2018-01-11T01:39:52.312Z,0.00
2018-01-11T01:41:24.131Z,0.00
2018-01-11T01:42:55.948Z,0.00
2018-01-11T01:44:27.768Z,0.00
2018-01-11T01:45:59.586Z,0.00
2018-01-11T01:47:31.404Z,0.00
2018-01-11T01:49:03.224Z,0.00
2018-01-11T01:50:35.042Z,0.00
2018-01-11T01:52:06.862Z,0.00
2018-01-11T01:53:38.681Z,0.00
2018-01-11T01:55:10.497Z,0.00
2018-01-11T01:56:42.316Z,0.00
2018-01-11T01:58:14.136Z,0.00
2018-01-11T01:59:45.953Z,0.00
2018-01-11T02:01:17.773Z,0.00
2018-01-11T02:02:49.590Z,0.00
2018-01-11T02:04:21.409Z,0.00
2018-01-11T02:05:53.228Z,0.00
2018-01-11T02:07:25.050Z,0.00
2018-01-11T02:08:56.866Z,0.00
2018-01-11T02:10:28.684Z,0.00
2018-01-11T02:12:00.504Z,0.00
2018-01-11T02:13:32.322Z,0.00
2018-01-11T02:15:04.141Z,0.00
2018-01-11T02:16:35.960Z,0.00
2018-01-11T02:18:07.778Z,0.00
2018-01-11T02:19:39.597Z,0.00
2018-01-11T02:21:11.416Z,0.00
2018-01-11T02:22:43.235Z,0.00
2018-01-11T02:24:15.053Z,0.00
2018-01-11T02:25:46.876Z,0.00
2018-01-11T02:27:18.691Z,0.00
2018-01-11T02:28:50.510Z,0.00
2018-01-11T02:30:22.328Z,0.00
2018-01-11T02:31:54.149Z,0.00
2018-01-11T02:33:25.969Z,0.00
2018-01-11T02:34:57.783Z,0.00
2018-01-11T02:36:29.602Z,0.00
2018-01-11T02:38:01.420Z,0.00
2018-01-11T02:39:33.238Z,0.00
2018-01-11T02:41:05.056Z,0.00
2018-01-11T02:42:36.875Z,0.00
2018-01-11T02:44:08.694Z,0.00
2018-01-11T02:45:40.515Z,0.00
2018-01-11T02:47:12.329Z,0.00
2018-01-11T02:48:44.150Z,0.00
2018-01-11T02:50:15.966Z,0.00
2018-01-11T02:51:47.784Z,0.00
2018-01-11T02:53:19.602Z,0.00
2018-01-11T02:54:51.421Z,0.00
2018-01-11T02:56:23.239Z,0.00
2018-01-11T02:57:55.058Z,0.00
2018-01-11T02:59:26.875Z,0.00
2018-01-11T03:00:58.695Z,0.00
2018-01-11T03:02:30.512Z,0.00
2018-01-11T03:04:02.330Z,0.00
2018-01-11T03:05:34.147Z,0.00
2018-01-11T03:07:05.966Z,0.00
2018-01-11T03:08:37.784Z,0.00
2018-01-11T03:10:09.602Z,0.00
2018-01-11T03:11:41.420Z,0.00
2018-01-11T03:13:13.238Z,0.00
2018-01-11T03:14:45.056Z,0.00
2018-01-11T03:16:16.874Z,0.00
2018-01-11T03:17:48.692Z,0.00
2018-01-11T03:19:20.509Z,0.00
2018-01-11T03:20:52.327Z,0.00
2018-01-11T03:22:24.144Z,0.00
2018-01-11T03:23:55.963Z,0.00
2018-01-11T03:25:27.782Z,0.00
2018-01-11T03:26:59.599Z,0.00
2018-01-11T03:28:31.417Z,0.00
2018-01-11T03:30:03.239Z,0.00
2018-01-11T03:31:35.053Z,0.00
2018-01-11T03:33:06.871Z,0.00
2018-01-11T03:34:38.689Z,0.00
2018-01-11T03:36:10.507Z,0.00
2018-01-11T03:37:42.325Z,0.00
2018-01-11T03:39:14.143Z,0.00
2018-01-11T03:40:45.961Z,0.00
2018-01-11T03:42:17.779Z,0.00
2018-01-11T03:43:49.597Z,0.00
2018-01-11T03:45:21.415Z,0.00
2018-01-11T03:46:53.236Z,0.00
2018-01-11T03:48:25.054Z,0.00
2018-01-11T03:49:56.869Z,0.00
2018-01-11T03:51:28.687Z,0.00
2018-01-11T03:53:00.505Z,0.00
2018-01-11T03:54:32.323Z,0.00
2018-01-11T03:56:04.142Z,0.00
2018-01-11T03:57:35.960Z,0.00
2018-01-11T03:59:07.777Z,0.00
2018-01-11T04:00:39.596Z,0.00
2018-01-11T04:02:11.415Z,0.00
2018-01-11T04:03:43.232Z,0.00
2018-01-11T04:05:15.049Z,0.00
2018-01-11T04:06:46.870Z,0.00
2018-01-11T04:08:18.685Z,0.00
2018-01-11T04:09:50.504Z,0.00
2018-01-11T04:11:22.322Z,0.00
2018-01-11T04:12:54.139Z,0.00
2018-01-11T04:14:25.960Z,0.00
2018-01-11T04:15:57.775Z,0.00
2018-01-11T04:17:29.594Z,0.00
2018-01-11T04:19:01.411Z,0.00
2018-01-11T04:20:33.229Z,0.00
2018-01-11T04:22:05.047Z,0.00
2018-01-11T04:23:36.865Z,0.00
2018-01-11T04:25:08.683Z,0.00
2018-01-11T04:26:40.501Z,0.00
2018-01-11T04:28:12.319Z,0.00
2018-01-11T04:29:44.139Z,0.00
2018-01-11T04:31:15.956Z,0.00
2018-01-11T04:32:47.772Z,0.00
2018-01-11T04:34:19.591Z,0.00
2018-01-11T04:35:51.408Z,0.00
2018-01-11T04:37:23.226Z,0.00
2018-01-11T04:38:55.044Z,0.00
2018-01-11T04:40:26.862Z,0.00
2018-01-11T04:41:58.680Z,0.00
2018-01-11T04:43:30.497Z,0.00
2018-01-11T04:45:02.315Z,0.00
2018-01-11T04:46:34.134Z,0.00
2018-01-11T04:48:05.951Z,0.00
2018-01-11T04:49:37.768Z,0.00
2018-01-11T04:51:09.586Z,0.00
2018-01-11T04:52:41.403Z,0.00
2018-01-11T04:54:13.221Z,0.00
2018-01-11T04:55:45.038Z,0.00
2018-01-11T04:57:16.856Z,0.00
2018-01-11T04:58:48.673Z,0.00
2018-01-11T05:00:20.491Z,0.00
2018-01-11T05:01:52.309Z,0.00
2018-01-11T05:03:24.127Z,0.00
2018-01-11T05:04:55.944Z,0.00
2018-01-11T05:06:27.911Z,0.00
2018-01-11T05:07:59.758Z,0.00
2018-01-11T05:09:31.397Z,0.00
2018-01-11T05:11:03.212Z,0.00
2018-01-11T05:12:35.030Z,0.00
2018-01-11T05:14:06.850Z,0.00
2018-01-11T05:15:38.665Z,0.00
2018-01-11T05:17:10.498Z,0.00
2018-01-11T05:18:42.351Z,0.00
2018-01-11T05:20:14.118Z,0.00
2018-01-11T05:21:45.935Z,0.00
2018-01-11T05:23:17.756Z,0.00
2018-01-11T05:24:49.571Z,0.00
2018-01-11T05:26:21.388Z,0.00
2018-01-11T05:27:53.205Z,0.00
2018-01-11T05:29:25.023Z,0.00
2018-01-11T05:30:56.841Z,0.00
2018-01-11T05:32:28.658Z,0.00
2018-01-11T05:34:00.481Z,0.00
2018-01-11T05:35:32.301Z,0.00
2018-01-11T05:37:04.115Z,0.00
2018-01-11T05:38:35.933Z,0.00
2018-01-11T05:40:07.750Z,0.00
2018-01-11T05:41:39.569Z,0.00
2018-01-11T05:43:11.385Z,0.00
2018-01-11T05:44:43.201Z,0.00
2018-01-11T05:46:15.020Z,0.00
2018-01-11T05:47:46.836Z,0.00
2018-01-11T05:49:18.655Z,0.00
2018-01-11T05:50:50.472Z,0.00
2018-01-11T05:52:22.290Z,0.00
2018-01-11T05:53:54.107Z,0.00
2018-01-11T05:55:25.924Z,0.00
2018-01-11T05:56:57.743Z,0.00
2018-01-11T05:58:29.562Z,0.00
2018-01-11T06:00:01.377Z,0.00
2018-01-11T06:01:33.196Z,0.00
2018-01-11T06:03:05.012Z,0.00
2018-01-11T06:04:36.829Z,0.00
2018-01-11T06:06:08.646Z,0.00
2018-01-11T06:07:40.464Z,0.00
2018-01-11T06:09:12.281Z,0.00
2018-01-11T06:10:44.099Z,0.00
2018-01-11T06:12:15.916Z,0.00
2018-01-11T06:13:47.733Z,0.00
2018-01-11T06:15:19.550Z,0.00
2018-01-11T06:16:51.367Z,0.00
2018-01-11T06:18:23.184Z,0.00
2018-01-11T06:19:55.002Z,0.00
2018-01-11T06:21:26.819Z,0.00
2018-01-11T06:22:58.637Z,0.00
2018-01-11T06:24:30.453Z,0.00
2018-01-11T06:26:02.270Z,0.00
2018-01-11T06:27:34.088Z,0.00
2018-01-11T06:29:05.905Z,0.00
2018-01-11T06:30:37.722Z,0.00
2018-01-11T06:32:09.539Z,0.00
2018-01-11T06:33:41.357Z,0.00
2018-01-11T06:35:13.174Z,0.00
2018-01-11T06:36:44.992Z,0.00
2018-01-11T06:38:16.809Z,0.00
2018-01-11T06:39:48.631Z,0.00
2018-01-11T06:41:20.444Z,0.00
2018-01-11T06:42:52.262Z,0.00
2018-01-11T06:44:24.079Z,0.00
2018-01-11T06:45:55.896Z,0.00
2018-01-11T06:47:27.714Z,0.00
2018-01-11T06:48:59.531Z,0.00
2018-01-11T06:50:31.348Z,0.00
2018-01-11T06:52:03.168Z,0.00
2018-01-11T06:53:34.986Z,0.00
2018-01-11T06:55:06.801Z,0.00
2018-01-11T06:56:38.617Z,0.00
2018-01-11T06:58:10.435Z,0.00
2018-01-11T06:59:42.253Z,0.00
2018-01-11T07:01:14.070Z,0.00
2018-01-11T07:02:45.887Z,0.00
2018-01-11T07:04:17.705Z,0.00
2018-01-11T07:05:49.523Z,0.00
2018-01-11T07:07:21.340Z,0.00
2018-01-11T07:08:55.011Z,0.00
2018-01-11T07:10:24.975Z,0.00
2018-01-11T07:11:56.799Z,0.00
2018-01-11T07:13:28.609Z,0.00
2018-01-11T07:15:00.428Z,0.00
2018-01-11T07:16:32.244Z,0.00
2018-01-11T07:18:04.061Z,0.00
2018-01-11T07:19:35.879Z,0.00
2018-01-11T07:21:07.696Z,0.00
2018-01-11T07:22:39.513Z,0.00
2018-01-11T07:24:11.331Z,0.00
2018-01-11T07:25:43.148Z,0.00
2018-01-11T07:27:14.966Z,0.00
2018-01-11T07:28:46.783Z,0.00
2018-01-11T07:30:18.600Z,0.00
2018-01-11T07:31:50.417Z,0.00
2018-01-11T07:33:22.235Z,0.00
2018-01-11T07:34:54.051Z,0.00
2018-01-11T07:36:25.868Z,0.00
2018-01-11T07:37:57.686Z,0.00
2018-01-11T07:39:29.503Z,0.00
2018-01-11T07:41:01.319Z,0.00
2018-01-11T07:42:33.137Z,0.00
2018-01-11T07:44:04.953Z,0.00
2018-01-11T07:45:36.771Z,0.00
2018-01-11T07:47:08.588Z,0.00
2018-01-11T07:48:40.405Z,0.00
2018-01-11T07:50:12.222Z,0.00
2018-01-11T07:51:44.094Z,0.00
2018-01-11T07:53:15.856Z,0.00
2018-01-11T07:54:47.674Z,0.00
2018-01-11T07:56:19.490Z,0.00
2018-01-11T07:57:51.309Z,0.00
2018-01-11T07:59:23.129Z,0.00
2018-01-11T08:00:54.945Z,0.00
2018-01-11T08:02:26.760Z,0.00
2018-01-11T08:03:58.576Z,0.00
2018-01-11T08:05:30.393Z,0.00
2018-01-11T08:07:02.210Z,0.00
2018-01-11T08:08:34.026Z,4.00
2018-01-11T08:10:05.844Z,4.00
2018-01-11T08:11:37.661Z,4.00
2018-01-11T08:13:09.483Z,8.00
2018-01-11T08:14:41.296Z,8.00
2018-01-11T08:16:13.113Z,16.00
2018-01-11T08:17:44.929Z,20.00
2018-01-11T08:19:16.747Z,28.00
2018-01-11T08:20:48.564Z,40.00
2018-01-11T08:22:20.382Z,56.00
2018-01-11T08:23:52.203Z,72.00
2018-01-11T08:25:24.016Z,92.00
2018-01-11T08:26:55.834Z,120.00
2018-01-11T08:28:27.651Z,160.00
2018-01-11T08:29:59.469Z,204.00
2018-01-11T08:31:31.286Z,248.00
2018-01-11T08:33:03.104Z,284.00
2018-01-11T08:34:34.922Z,340.00
2018-01-11T08:36:06.738Z,396.00
2018-01-11T08:37:38.556Z,484.00
2018-01-11T08:39:10.372Z,540.00
2018-01-11T08:40:42.190Z,604.00
2018-01-11T08:42:14.007Z,652.00
2018-01-11T08:43:45.823Z,688.00
2018-01-11T08:45:17.641Z,712.00
2018-01-11T08:46:49.466Z,764.00
2018-01-11T08:48:21.276Z,816.00
2018-01-11T08:49:53.093Z,868.00
2018-01-11T08:51:24.910Z,916.00
2018-01-11T08:52:56.730Z,1048.00
2018-01-11T08:54:28.546Z,1148.00
2018-01-11T08:56:00.364Z,1260.00
2018-01-11T08:57:32.182Z,1464.00
2018-01-11T08:59:04.003Z,1760.00
2018-01-11T09:00:35.817Z,1932.00
2018-01-11T09:02:07.635Z,2260.00
2018-01-11T09:03:39.453Z,2392.00
2018-01-11T09:05:11.271Z,2540.00
2018-01-11T09:06:43.089Z,2528.00
2018-01-11T09:08:14.907Z,2660.00
2018-01-11T09:09:46.724Z,2668.00
2018-01-11T09:11:18.542Z,2792.00
2018-01-11T09:12:50.360Z,3196.00
2018-01-11T09:14:22.177Z,3236.00
2018-01-11T09:15:53.993Z,3324.00
2018-01-11T09:17:25.811Z,3768.00
2018-01-11T09:18:57.630Z,4388.00
2018-01-11T09:20:29.447Z,4640.00
2018-01-11T09:22:01.265Z,4860.00
2018-01-11T09:23:33.083Z,5508.00
2018-01-11T09:25:04.901Z,6140.00
2018-01-11T09:26:36.719Z,6608.00
2018-01-11T09:28:08.541Z,6384.00
2018-01-11T09:29:40.406Z,6496.00
2018-01-11T09:31:12.174Z,6832.00
2018-01-11T09:32:43.993Z,6456.00
2018-01-11T09:34:15.809Z,6100.00
2018-01-11T09:35:47.685Z,6808.00
2018-01-11T09:37:19.446Z,6648.00
2018-01-11T09:38:51.265Z,7640.00
2018-01-11T09:40:23.083Z,9952.00
2018-01-11T09:41:54.901Z,11968.00
2018-01-11T09:43:26.921Z,12584.00
2018-01-11T09:44:58.562Z,11216.00
2018-01-11T09:46:30.357Z,11560.00
2018-01-11T09:48:02.179Z,12500.00
2018-01-11T09:49:33.993Z,12632.00
2018-01-11T09:51:05.812Z,13132.00
2018-01-11T09:52:37.663Z,13796.00
2018-01-11T09:54:09.450Z,13764.00
2018-01-11T09:55:41.269Z,14696.00
2018-01-11T09:57:13.090Z,14696.00
2018-01-11T09:58:44.909Z,16560.00
2018-01-11T10:00:16.761Z,17952.00
2018-01-11T10:01:48.545Z,18080.00
2018-01-11T10:03:20.365Z,16360.00
2018-01-11T10:04:52.232Z,15916.00
2018-01-11T10:06:24.004Z,15160.00
2018-01-11T10:07:55.889Z,14268.00
2018-01-11T10:09:27.641Z,17000.00
2018-01-11T10:10:59.460Z,23552.00
2018-01-11T10:12:31.309Z,26880.00
2018-01-11T10:14:03.101Z,28736.00
2018-01-11T10:15:34.924Z,32352.00
2018-01-11T10:17:06.927Z,32736.00
2018-01-11T10:18:38.585Z,26144.00
2018-01-11T10:20:10.468Z,22624.00
2018-01-11T10:21:42.203Z,25472.00
2018-01-11T10:23:14.031Z,26784.00
2018-01-11T10:24:46.047Z,21056.00
2018-01-11T10:26:17.667Z,16864.00
2018-01-11T10:27:49.488Z,17408.00
2018-01-11T10:29:21.325Z,18720.00
2018-01-11T10:30:53.133Z,17024.00
2018-01-11T10:32:24.954Z,18592.00
2018-01-11T10:33:56.792Z,20960.00
2018-01-11T10:35:28.600Z,25312.00
2018-01-11T10:37:00.520Z,20640.00
2018-01-11T10:38:32.240Z,24640.00
2018-01-11T10:40:04.061Z,21824.00
2018-01-11T10:41:35.897Z,28224.00
2018-01-11T10:43:07.705Z,28224.00
2018-01-11T10:44:39.527Z,23872.00
2018-01-11T10:46:11.382Z,31008.00
2018-01-11T10:47:43.172Z,29632.00
2018-01-11T10:49:14.994Z,31712.00
2018-01-11T10:50:46.818Z,33408.00
2018-01-11T10:52:18.641Z,36992.00
2018-01-11T10:53:50.466Z,32000.00
2018-01-11T10:55:22.287Z,36448.00
2018-01-11T10:56:54.111Z,41888.00
2018-01-11T10:58:25.935Z,49120.00
2018-01-11T10:59:57.758Z,51616.00
2018-01-11T11:01:29.582Z,57984.00
2018-01-11T11:03:01.405Z,60064.00
2018-01-11T11:04:33.230Z,62272.00
2018-01-11T11:06:05.093Z,64096.00
2018-01-11T11:07:36.879Z,60224.00
2018-01-11T11:09:08.726Z,54816.00
2018-01-11T11:10:40.526Z,65216.00
2018-01-11T11:12:12.351Z,35744.00
2018-01-11T11:13:44.175Z,60160.00
2018-01-11T11:15:16.299Z,65632.00
2018-01-11T11:16:47.825Z,64064.00
2018-01-11T11:18:19.649Z,62944.00
2018-01-11T11:19:51.474Z,64256.00
2018-01-11T11:21:23.423Z,66592.00
2018-01-11T11:22:55.206Z,65088.00
2018-01-11T11:24:26.948Z,65696.00
2018-01-11T11:25:58.773Z,62624.00
2018-01-11T11:27:30.598Z,62528.00
2018-01-11T11:29:02.423Z,60448.00
2018-01-11T11:30:34.248Z,59296.00
2018-01-11T11:32:06.072Z,60032.00
2018-01-11T11:33:37.896Z,64224.00
2018-01-11T11:35:09.721Z,67264.00
2018-01-11T11:36:41.576Z,68448.00
2018-01-11T11:38:13.372Z,69216.00
2018-01-11T11:39:45.200Z,68160.00
2018-01-11T11:41:17.032Z,65696.00
2018-01-11T11:42:48.847Z,69376.00
2018-01-11T11:44:20.673Z,69568.00
2018-01-11T11:45:52.498Z,69376.00
2018-01-11T11:47:24.324Z,69824.00
2018-01-11T11:48:56.151Z,69984.00
2018-01-11T11:50:27.977Z,73536.00
2018-01-11T11:51:59.803Z,73376.00
2018-01-11T11:53:31.626Z,71552.00
2018-01-11T11:55:03.453Z,61728.00
2018-01-11T11:56:35.281Z,49088.00
2018-01-11T11:58:07.105Z,64352.00
2018-01-11T11:59:38.930Z,81472.00
2018-01-11T12:01:10.758Z,88384.00
2018-01-11T12:02:42.582Z,87232.00
2018-01-11T12:04:14.407Z,84224.00
2018-01-11T12:05:46.234Z,84800.00
2018-01-11T12:07:18.059Z,89728.00
2018-01-11T12:08:49.886Z,95168.00
2018-01-11T12:10:21.758Z,99264.00
2018-01-11T12:11:53.539Z,103040.00
2018-01-11T12:13:25.364Z,96928.00
2018-01-11T12:14:57.190Z,97472.00
2018-01-11T12:16:29.017Z,95040.00
2018-01-11T12:18:00.845Z,101952.00
2018-01-11T12:19:32.676Z,112320.00
2018-01-11T12:21:04.497Z,107584.00
2018-01-11T12:22:36.323Z,110176.00
2018-01-11T12:24:08.151Z,101792.00
2018-01-11T12:25:39.978Z,104896.00
2018-01-11T12:27:11.804Z,112096.00
2018-01-11T12:28:43.632Z,116672.00
2018-01-11T12:30:15.458Z,125280.00
2018-01-11T12:31:47.285Z,130880.00
2018-01-11T12:33:19.114Z,130784.00
2018-01-11T12:34:50.940Z,125664.00
2018-01-11T12:36:22.768Z,134272.00
2018-01-11T12:37:54.596Z,133568.00
2018-01-11T12:39:26.423Z,124320.00
2018-01-11T12:40:58.250Z,120928.00
2018-01-11T12:42:30.079Z,128096.00
2018-01-11T12:44:01.908Z,131840.00
2018-01-11T12:45:34.040Z,125216.00
2018-01-11T12:47:05.564Z,120992.00
2018-01-11T12:48:37.395Z,117440.00
2018-01-11T12:50:09.222Z,109280.00
2018-01-11T12:51:41.052Z,114176.00
2018-01-11T12:53:12.883Z,114848.00
2018-01-11T12:54:44.710Z,115840.00
2018-01-11T12:56:16.539Z,111552.00
2018-01-11T12:57:48.369Z,105792.00
2018-01-11T12:59:20.199Z,115520.00
2018-01-11T13:00:52.030Z,120320.00
2018-01-11T13:02:23.907Z,123232.00
2018-01-11T13:03:55.707Z,118496.00
2018-01-11T13:05:27.518Z,117408.00
2018-01-11T13:07:00.207Z,97632.00
2018-01-11T13:08:31.179Z,82784.00
2018-01-11T13:10:03.009Z,90816.00
2018-01-11T13:11:34.840Z,95584.00
2018-01-11T13:13:06.670Z,96928.00
2018-01-11T13:14:38.501Z,104448.00
2018-01-11T13:16:11.942Z,106816.00
2018-01-11T13:17:42.162Z,86400.00
2018-01-11T13:19:13.993Z,84480.00
2018-01-11T13:20:45.823Z,87968.00
2018-01-11T13:22:17.653Z,86528.00
2018-01-11T13:23:49.483Z,88992.00
2018-01-11T13:25:21.313Z,87872.00
2018-01-11T13:26:53.144Z,100832.00
2018-01-11T13:28:24.975Z,104576.00
2018-01-11T13:29:56.806Z,92768.00
2018-01-11T13:31:28.640Z,87264.00
2018-01-11T13:33:03.719Z,78784.00
2018-01-11T13:34:33.132Z,75456.00
2018-01-11T13:36:05.547Z,61728.00
2018-01-11T13:37:37.504Z,63264.00
2018-01-11T13:39:08.206Z,67232.00
2018-01-11T13:40:44.090Z,81408.00
2018-01-11T13:42:11.901Z,86464.00
2018-01-11T13:43:52.581Z,94272.00
2018-01-11T13:45:22.854Z,80224.00
2018-01-11T13:46:48.403Z,93600.00
2018-01-11T13:48:29.046Z,87200.00
2018-01-11T13:49:55.174Z,127232.00
2018-01-11T13:51:23.944Z,112672.00
2018-01-11T13:52:54.400Z,115392.00
2018-01-11T13:54:26.628Z,89536.00
2018-01-11T13:55:57.926Z,123488.00
2018-01-11T13:57:29.811Z,110144.00
2018-01-11T13:59:02.282Z,96160.00
2018-01-11T14:00:37.057Z,84192.00
2018-01-11T14:02:05.253Z,55552.00
2018-01-11T14:03:37.107Z,88832.00
2018-01-11T14:05:08.921Z,58752.00
2018-01-11T14:06:40.748Z,93952.00
2018-01-11T14:08:16.033Z,80864.00
2018-01-11T14:09:44.409Z,75680.00
2018-01-11T14:11:16.266Z,70688.00
2018-01-11T14:12:48.071Z,77344.00
2018-01-11T14:14:19.901Z,77568.00
2018-01-11T14:15:51.733Z,77568.00
2018-01-11T14:17:23.569Z,76608.00
2018-01-11T14:18:55.398Z,79680.00
2018-01-11T14:20:29.304Z,83584.00
2018-01-11T14:21:59.067Z,90560.00
2018-01-11T14:23:31.288Z,88320.00
2018-01-11T14:25:05.257Z,104224.00
2018-01-11T14:26:34.570Z,110688.00
2018-01-11T14:28:10.028Z,69376.00
2018-01-11T14:29:38.401Z,66816.00
2018-01-11T14:31:10.119Z,55232.00
2018-01-11T14:32:45.876Z,55552.00
2018-01-11T14:34:13.940Z,67744.00
2018-01-11T14:35:45.676Z,77504.00
2018-01-11T14:37:18.752Z,104800.00
2018-01-11T14:38:49.239Z,133152.00
2018-01-11T14:40:21.073Z,134624.00
2018-01-11T14:41:52.904Z,81600.00
2018-01-11T14:43:24.736Z,92256.00
2018-01-11T14:44:56.579Z,64000.00
2018-01-11T14:46:28.399Z,67424.00
2018-01-11T14:48:00.232Z,56896.00
2018-01-11T14:49:32.161Z,57664.00
2018-01-11T14:51:03.897Z,57344.00
2018-01-11T14:52:35.721Z,59104.00
2018-01-11T14:54:07.559Z,60672.00
2018-01-11T14:55:39.381Z,58144.00
2018-01-11T14:57:11.219Z,61152.00
2018-01-11T14:58:43.039Z,67840.00
2018-01-11T15:00:14.868Z,67008.00
2018-01-11T15:01:46.696Z,64320.00
2018-01-11T15:03:18.524Z,63808.00
2018-01-11T15:04:50.355Z,64416.00
2018-01-11T15:06:22.181Z,65504.00
2018-01-11T15:07:54.010Z,66528.00
2018-01-11T15:09:25.839Z,67552.00
2018-01-11T15:10:57.666Z,68096.00
2018-01-11T15:12:29.527Z,67008.00
2018-01-11T15:14:01.321Z,63584.00
2018-01-11T15:15:33.148Z,62464.00
2018-01-11T15:17:04.978Z,61888.00
2018-01-11T15:18:36.855Z,61920.00
2018-01-11T15:20:08.638Z,62752.00
2018-01-11T15:21:40.462Z,66464.00
2018-01-11T15:23:12.292Z,77792.00
2018-01-11T15:24:44.139Z,70720.00
2018-01-11T15:26:15.944Z,77504.00
2018-01-11T15:27:47.772Z,140128.00
2018-01-11T15:29:20.111Z,126144.00
2018-01-11T15:30:51.470Z,96416.00
2018-01-11T15:32:23.258Z,147616.00
2018-01-11T15:33:55.576Z,138592.00
2018-01-11T15:35:26.919Z,125024.00
2018-01-11T15:36:58.750Z,135264.00
2018-01-11T15:38:30.611Z,115200.00
2018-01-11T15:40:02.418Z,141152.00
2018-01-11T15:41:34.247Z,124448.00
2018-01-11T15:43:06.079Z,94848.00
2018-01-11T15:44:37.941Z,102496.00
2018-01-11T15:46:09.750Z,52000.00
2018-01-11T15:47:41.577Z,50336.00
2018-01-11T15:49:13.431Z,101856.00
2018-01-11T15:50:45.458Z,103360.00
2018-01-11T15:52:17.074Z,92800.00
2018-01-11T15:53:48.905Z,114944.00
2018-01-11T15:55:20.736Z,132160.00
2018-01-11T15:56:52.602Z,112832.00
2018-01-11T15:58:24.399Z,65984.00
2018-01-11T15:59:56.231Z,97440.00
2018-01-11T16:01:28.095Z,64928.00
2018-01-11T16:02:59.896Z,65760.00
2018-01-11T16:04:31.737Z,68096.00
2018-01-11T16:06:03.796Z,54624.00
2018-01-11T16:07:35.502Z,124608.00
2018-01-11T16:09:07.223Z,139456.00
2018-01-11T16:10:39.066Z,157600.00
2018-01-11T16:12:11.160Z,114656.00
2018-01-11T16:13:42.722Z,104000.00
2018-01-11T16:15:14.559Z,109344.00
2018-01-11T16:16:46.486Z,124832.00
2018-01-11T16:18:18.237Z,120672.00
2018-01-11T16:19:50.064Z,141664.00
2018-01-11T16:21:21.934Z,53088.00
2018-01-11T16:22:53.867Z,49888.00
2018-01-11T16:24:25.565Z,44448.00
2018-01-11T16:25:57.383Z,41184.00
2018-01-11T16:27:29.344Z,42496.00
2018-01-11T16:29:01.048Z,45184.00
2018-01-11T16:30:32.911Z,45120.00
2018-01-11T16:32:04.713Z,46752.00
2018-01-11T16:33:36.535Z,50912.00
2018-01-11T16:35:08.365Z,70080.00
2018-01-11T16:36:40.192Z,50784.00
2018-01-11T16:38:12.022Z,51648.00
2018-01-11T16:39:43.851Z,55712.00
2018-01-11T16:41:15.678Z,55424.00
2018-01-11T16:42:47.508Z,57856.00
2018-01-11T16:44:19.335Z,85376.00
2018-01-11T16:45:51.164Z,92512.00
2018-01-11T16:47:22.992Z,55456.00
2018-01-11T16:48:54.821Z,51904.00
2018-01-11T16:50:26.650Z,44832.00
2018-01-11T16:51:58.478Z,43104.00
2018-01-11T16:53:30.831Z,48064.00
2018-01-11T16:55:02.139Z,67072.00
2018-01-11T16:56:33.963Z,45792.00
2018-01-11T16:58:05.791Z,44672.00
2018-01-11T16:59:37.618Z,46208.00
2018-01-11T17:01:09.449Z,72800.00
2018-01-11T17:02:41.275Z,80192.00
2018-01-11T17:04:13.102Z,71840.00
2018-01-11T17:05:44.930Z,64256.00
2018-01-11T17:07:16.760Z,53888.00
2018-01-11T17:08:48.589Z,38176.00
2018-01-11T17:10:20.413Z,25408.00
2018-01-11T17:11:52.293Z,26400.00
2018-01-11T17:13:24.117Z,28640.00
2018-01-11T17:14:55.897Z,48288.00
2018-01-11T17:16:27.720Z,57568.00
2018-01-11T17:17:59.552Z,38112.00
2018-01-11T17:19:31.390Z,24224.00
2018-01-11T17:21:03.203Z,16892.00
2018-01-11T17:22:35.056Z,11560.00
2018-01-11T17:24:06.866Z,11656.00
2018-01-11T17:25:38.683Z,12320.00
2018-01-11T17:27:10.507Z,18176.00
2018-01-11T17:28:42.332Z,17300.00
2018-01-11T17:30:14.168Z,20224.00
2018-01-11T17:31:46.027Z,23584.00
2018-01-11T17:33:17.804Z,21248.00
2018-01-11T17:34:50.092Z,20352.00
2018-01-11T17:36:21.465Z,19296.00
2018-01-11T17:37:53.308Z,28224.00
2018-01-11T17:39:26.090Z,27552.00
2018-01-11T17:40:56.926Z,25664.00
2018-01-11T17:42:28.748Z,25888.00
2018-01-11T17:44:00.574Z,49664.00
2018-01-11T17:45:32.496Z,31392.00
2018-01-11T17:47:04.220Z,42816.00
2018-01-11T17:48:36.064Z,33952.00
2018-01-11T17:50:07.904Z,28576.00
2018-01-11T17:51:39.691Z,28544.00
2018-01-11T17:53:11.547Z,29504.00
2018-01-11T17:54:43.339Z,28960.00
2018-01-11T17:56:15.162Z,27616.00
2018-01-11T17:57:46.989Z,26048.00
2018-01-11T17:59:18.809Z,24416.00
2018-01-11T18:00:50.670Z,22720.00
2018-01-11T18:02:22.457Z,20512.00
2018-01-11T18:03:54.284Z,17952.00
2018-01-11T18:05:26.137Z,14740.00
2018-01-11T18:06:57.930Z,12072.00
2018-01-11T18:08:29.951Z,11308.00
2018-01-11T18:10:01.576Z,11624.00
2018-01-11T18:11:33.448Z,12000.00
2018-01-11T18:13:05.222Z,11828.00
2018-01-11T18:14:37.044Z,10644.00
2018-01-11T18:16:08.867Z,8928.00
2018-01-11T18:17:40.691Z,7620.00
2018-01-11T18:19:12.512Z,7016.00
2018-01-11T18:20:44.334Z,6548.00
2018-01-11T18:22:16.157Z,6264.00
2018-01-11T18:23:47.980Z,6440.00
2018-01-11T18:25:19.801Z,7176.00
2018-01-11T18:26:51.624Z,8536.00
2018-01-11T18:28:23.443Z,9756.00
2018-01-11T18:29:55.265Z,9988.00
2018-01-11T18:31:27.087Z,6860.00
2018-01-11T18:32:58.910Z,5104.00
2018-01-11T18:34:30.731Z,5076.00
2018-01-11T18:36:02.552Z,5616.00
2018-01-11T18:37:34.403Z,5648.00
2018-01-11T18:39:06.195Z,5104.00
2018-01-11T18:40:38.016Z,4228.00
2018-01-11T18:42:09.838Z,3420.00
2018-01-11T18:43:41.656Z,3684.00
2018-01-11T18:45:13.477Z,4776.00
2018-01-11T18:46:45.298Z,6488.00
2018-01-11T18:48:17.118Z,7872.00
2018-01-11T18:49:48.938Z,7472.00
2018-01-11T18:51:20.758Z,6856.00
2018-01-11T18:52:52.587Z,5024.00
2018-01-11T18:54:24.400Z,4644.00
2018-01-11T18:55:56.219Z,5452.00
2018-01-11T18:57:28.039Z,5528.00